Terminal Aerodrome Forecast
Issued by NWS

Home | Current Version | Previous Version | Text Only | Print | Product List | Glossary On
Versions: 1 2 3 4 5 6 7 8 9 10 11 12 13 14 15 16 17
000
FTUS45 KGJT 241132
TAFVEL
TAF
KVEL 241132Z 2412/2512 04007KT P6SM FEW070 FEW200
     FM241600 05015G23KT P6SM FEW070 SCT250
     FM250600 33006KT P6SM SKC=

USA.gov is the U.S. government's official web portal to all federal, state and local government web resources and services.